createdAt,value
2019-03-31T00:00:49.565Z,1015.47
2019-03-31T00:02:42.471Z,1015.47
2019-03-31T00:03:42.479Z,1015.48
2019-03-31T00:05:37.232Z,1015.47
2019-03-31T00:06:35.391Z,1015.46
2019-03-31T00:08:28.301Z,1015.46
2019-03-31T00:09:28.308Z,1015.48
2019-03-31T00:11:21.210Z,1015.46
2019-03-31T00:12:21.220Z,1015.43
2019-03-31T00:14:14.128Z,1015.43
2019-03-31T00:15:14.137Z,1015.42
2019-03-31T00:17:07.048Z,1015.44
2019-03-31T00:18:07.052Z,1015.45
2019-03-31T00:19:59.962Z,1015.41
2019-03-31T00:20:59.966Z,1015.43
2019-03-31T00:22:52.876Z,1015.42
2019-03-31T00:23:52.879Z,1015.43
2019-03-31T00:25:45.784Z,1015.48
2019-03-31T00:26:45.795Z,1015.55
2019-03-31T00:28:38.703Z,1015.57
2019-03-31T00:29:38.708Z,1015.60
2019-03-31T00:31:31.607Z,1015.58
2019-03-31T00:32:31.621Z,1015.59
2019-03-31T00:34:24.526Z,1015.61
2019-03-31T00:35:24.532Z,1015.58
2019-03-31T00:37:17.438Z,1015.63
2019-03-31T00:38:17.446Z,1015.63
2019-03-31T00:40:10.355Z,1015.60
2019-03-31T00:41:10.357Z,1015.62
2019-03-31T00:43:03.265Z,1015.56
2019-03-31T00:44:03.374Z,1015.58
2019-03-31T00:45:56.174Z,1015.54
2019-03-31T00:46:56.186Z,1015.56
2019-03-31T00:48:49.091Z,1015.53
2019-03-31T00:49:49.097Z,1015.54
2019-03-31T00:51:41.997Z,1015.54
2019-03-31T00:52:42.009Z,1015.52
2019-03-31T00:54:34.914Z,1015.56
2019-03-31T00:55:34.921Z,1015.58
2019-03-31T00:57:27.827Z,1015.54
2019-03-31T00:58:27.837Z,1015.52
2019-03-31T01:00:20.735Z,1015.50
2019-03-31T01:01:20.748Z,1015.51
2019-03-31T01:03:13.657Z,1015.53
2019-03-31T01:04:13.661Z,1015.55
2019-03-31T01:06:06.586Z,1015.57
2019-03-31T01:07:06.574Z,1015.58
2019-03-31T01:08:59.482Z,1015.56
2019-03-31T01:09:59.488Z,1015.60
2019-03-31T01:11:52.386Z,1015.66
2019-03-31T01:12:52.401Z,1015.62
2019-03-31T01:14:45.311Z,1015.62
2019-03-31T01:15:45.314Z,1015.61
2019-03-31T01:17:38.219Z,1015.66
2019-03-31T01:18:38.227Z,1015.66
2019-03-31T01:20:31.129Z,1015.67
2019-03-31T01:21:31.136Z,1015.67
2019-03-31T01:23:24.044Z,1015.68
2019-03-31T01:24:24.051Z,1015.68
2019-03-31T01:26:16.950Z,1015.68
2019-03-31T01:27:16.961Z,1015.72
2019-03-31T01:29:09.871Z,1015.70
2019-03-31T01:30:09.882Z,1015.69
2019-03-31T01:32:02.789Z,1015.70
2019-03-31T01:33:02.787Z,1015.69
2019-03-31T01:34:55.695Z,1015.70
2019-03-31T01:35:55.700Z,1015.68
2019-03-31T01:37:48.691Z,1015.63
2019-03-31T01:38:48.612Z,1015.66
2019-03-31T01:40:41.514Z,1015.72
2019-03-31T01:41:41.527Z,1015.70
2019-03-31T01:43:34.435Z,1015.72
2019-03-31T01:44:34.475Z,1015.73
2019-03-31T01:46:27.343Z,1015.77
2019-03-31T01:47:27.359Z,1015.78
2019-03-31T01:49:20.262Z,1015.78
2019-03-31T01:50:20.269Z,1015.81
2019-03-31T01:52:13.169Z,1015.79
2019-03-31T01:53:13.180Z,1015.80
2019-03-31T01:55:06.097Z,1015.85
2019-03-31T01:56:06.095Z,1015.86
2019-03-31T01:57:59.002Z,1015.85
2019-03-31T01:58:59.008Z,1015.89
2019-03-31T02:00:51.905Z,1015.90
2019-03-31T02:02:03.505Z,1015.89
2019-03-31T02:03:44.824Z,1015.94
2019-03-31T02:04:44.830Z,1015.96
2019-03-31T02:06:37.735Z,1015.97
2019-03-31T02:07:37.743Z,1015.97
2019-03-31T02:09:30.653Z,1016.01
2019-03-31T02:10:30.656Z,1016.03
2019-03-31T02:12:23.558Z,1016.00
2019-03-31T02:13:23.566Z,1016.01
2019-03-31T02:15:16.473Z,1016.01
2019-03-31T02:16:16.478Z,1015.99
2019-03-31T02:18:09.385Z,1016.00
2019-03-31T02:19:09.389Z,1016.04
2019-03-31T02:21:02.292Z,1016.02
2019-03-31T02:22:02.304Z,1016.05
2019-03-31T02:23:55.213Z,1016.03
2019-03-31T02:24:55.217Z,1016.07
2019-03-31T02:26:48.119Z,1016.08
2019-03-31T02:27:48.140Z,1016.05
2019-03-31T02:29:41.036Z,1016.02
2019-03-31T02:30:41.043Z,1015.98
2019-03-31T02:32:33.945Z,1015.97
2019-03-31T02:33:33.995Z,1015.98
2019-03-31T02:35:26.869Z,1016.00
2019-03-31T02:36:26.874Z,1015.99
2019-03-31T02:38:19.774Z,1016.04
2019-03-31T02:39:19.788Z,1016.06
2019-03-31T02:41:12.697Z,1016.06
2019-03-31T02:42:12.700Z,1016.06
2019-03-31T02:44:05.609Z,1016.03
2019-03-31T02:45:05.610Z,1016.02
2019-03-31T02:46:58.512Z,1016.03
2019-03-31T02:47:58.526Z,1016.03
2019-03-31T02:49:51.433Z,1016.05
2019-03-31T02:50:51.441Z,1016.07
2019-03-31T02:52:44.345Z,1016.03
2019-03-31T02:53:44.351Z,1016.07
2019-03-31T02:55:37.258Z,1016.07
2019-03-31T02:56:37.263Z,1016.09
2019-03-31T02:58:30.186Z,1016.04
2019-03-31T02:59:30.173Z,1016.05
2019-03-31T03:01:23.082Z,1016.04
2019-03-31T03:02:40.109Z,1016.04
2019-03-31T03:04:15.994Z,1016.09
2019-03-31T03:05:19.799Z,1016.14
2019-03-31T03:07:08.896Z,1016.18
2019-03-31T03:08:08.906Z,1016.15
2019-03-31T03:10:01.831Z,1016.16
2019-03-31T03:11:01.818Z,1016.16
2019-03-31T03:12:54.724Z,1016.15
2019-03-31T03:13:54.733Z,1016.23
2019-03-31T03:15:47.632Z,1016.20
2019-03-31T03:16:47.639Z,1016.23
2019-03-31T03:18:40.543Z,1016.29
2019-03-31T03:19:40.564Z,1016.27
2019-03-31T03:21:33.451Z,1016.30
2019-03-31T03:22:33.464Z,1016.29
2019-03-31T03:24:26.369Z,1016.27
2019-03-31T03:25:26.370Z,1016.26
2019-03-31T03:27:19.271Z,1016.26
2019-03-31T03:28:19.284Z,1016.23
2019-03-31T03:30:12.203Z,1016.24
2019-03-31T03:31:16.137Z,1016.26
2019-03-31T03:33:16.534Z,1016.24
2019-03-31T03:34:05.125Z,1016.26
2019-03-31T03:35:58.013Z,1016.30
2019-03-31T03:36:58.018Z,1016.32
2019-03-31T03:38:50.928Z,1016.35
2019-03-31T03:39:50.934Z,1016.39
2019-03-31T03:41:43.832Z,1016.44
2019-03-31T03:42:43.844Z,1016.44
2019-03-31T03:44:36.750Z,1016.42
2019-03-31T03:45:36.758Z,1016.43
2019-03-31T03:47:29.671Z,1016.45
2019-03-31T03:48:29.672Z,1016.45
2019-03-31T03:50:22.577Z,1016.49
2019-03-31T03:51:22.579Z,1016.47
2019-03-31T03:53:15.485Z,1016.46
2019-03-31T03:54:15.525Z,1016.45
2019-03-31T03:56:08.399Z,1016.43
2019-03-31T03:57:08.407Z,1016.40
2019-03-31T03:59:01.313Z,1016.40
2019-03-31T04:00:01.317Z,1016.39
2019-03-31T04:01:54.210Z,1016.40
2019-03-31T04:02:54.222Z,1016.40
2019-03-31T04:04:47.126Z,1016.44
2019-03-31T04:05:47.129Z,1016.44
2019-03-31T04:07:40.031Z,1016.55
2019-03-31T04:08:40.038Z,1016.51
2019-03-31T04:10:32.948Z,1016.49
2019-03-31T04:11:32.952Z,1016.48
2019-03-31T04:13:25.852Z,1016.51
2019-03-31T04:14:25.865Z,1016.56
2019-03-31T04:16:18.766Z,1016.61
2019-03-31T04:17:18.772Z,1016.59
2019-03-31T04:19:11.682Z,1016.57
2019-03-31T04:20:11.679Z,1016.60
2019-03-31T04:22:04.579Z,1016.57
2019-03-31T04:23:04.591Z,1016.67
2019-03-31T04:24:57.496Z,1016.71
2019-03-31T04:25:57.499Z,1016.71
2019-03-31T04:27:50.405Z,1016.72
2019-03-31T04:28:50.430Z,1016.76
2019-03-31T04:30:43.321Z,1016.73
2019-03-31T04:31:43.321Z,1016.76
2019-03-31T04:33:50.297Z,1016.80
2019-03-31T04:34:36.235Z,1016.82
2019-03-31T04:36:29.139Z,1016.84
2019-03-31T04:37:29.142Z,1016.89
2019-03-31T04:39:22.095Z,1016.91
2019-03-31T04:40:22.160Z,1016.91
2019-03-31T04:42:14.964Z,1016.89
2019-03-31T04:43:14.967Z,1016.85
2019-03-31T04:45:07.874Z,1016.91
2019-03-31T04:46:07.877Z,1016.89
2019-03-31T04:48:00.778Z,1016.89
2019-03-31T04:49:00.789Z,1016.88
2019-03-31T04:50:53.691Z,1016.91
2019-03-31T04:51:53.700Z,1016.89
2019-03-31T04:53:46.594Z,1016.96
2019-03-31T04:54:46.606Z,1016.98
2019-03-31T04:56:39.517Z,1017.05
2019-03-31T04:57:39.518Z,1017.03
2019-03-31T04:59:32.417Z,1017.08
2019-03-31T05:00:32.431Z,1017.13
2019-03-31T05:02:27.146Z,1017.13
2019-03-31T05:03:25.340Z,1017.13
2019-03-31T05:05:18.252Z,1017.15
2019-03-31T05:06:18.245Z,1017.14
2019-03-31T05:08:11.152Z,1017.27
2019-03-31T05:09:11.155Z,1017.25
2019-03-31T05:11:04.062Z,1017.29
2019-03-31T05:12:04.129Z,1017.35
2019-03-31T05:13:56.965Z,1017.34
2019-03-31T05:14:56.976Z,1017.39
2019-03-31T05:16:49.881Z,1017.45
2019-03-31T05:17:49.887Z,1017.48
2019-03-31T05:19:42.782Z,1017.59
2019-03-31T05:20:42.790Z,1017.59
2019-03-31T05:22:35.693Z,1017.61
2019-03-31T05:23:35.699Z,1017.69
2019-03-31T05:25:28.604Z,1017.71
2019-03-31T05:26:28.603Z,1017.72
2019-03-31T05:28:21.507Z,1017.73
2019-03-31T05:29:21.519Z,1017.76
2019-03-31T05:31:14.915Z,1017.77
2019-03-31T05:32:14.918Z,1017.81
2019-03-31T05:34:18.350Z,1017.81
2019-03-31T05:35:07.825Z,1017.93
2019-03-31T05:37:00.740Z,1017.95
2019-03-31T05:38:00.733Z,1017.93
2019-03-31T05:39:53.633Z,1017.88
2019-03-31T05:40:53.638Z,1017.92
2019-03-31T05:42:46.548Z,1017.96
2019-03-31T05:43:46.550Z,1017.97
2019-03-31T05:45:39.455Z,1017.96
2019-03-31T05:46:39.465Z,1017.97
2019-03-31T05:48:32.360Z,1018.02
2019-03-31T05:49:32.369Z,1018.06
2019-03-31T05:51:25.323Z,1018.07
2019-03-31T05:52:25.287Z,1018.12
2019-03-31T05:54:18.176Z,1018.16
2019-03-31T05:55:18.962Z,1018.15
2019-03-31T05:57:11.091Z,1018.13
2019-03-31T05:58:11.099Z,1018.13
2019-03-31T06:00:03.993Z,1018.16
2019-03-31T06:01:04.007Z,1018.16
2019-03-31T06:02:56.910Z,1018.17
2019-03-31T06:03:56.914Z,1018.20
2019-03-31T06:05:49.818Z,1018.22
2019-03-31T06:06:49.823Z,1018.28
2019-03-31T06:08:42.720Z,1018.31
2019-03-31T06:09:42.730Z,1018.30
2019-03-31T06:11:35.635Z,1018.24
2019-03-31T06:12:35.638Z,1018.24
2019-03-31T06:14:28.540Z,1018.18
2019-03-31T06:15:28.547Z,1018.19
2019-03-31T06:17:21.454Z,1018.24
2019-03-31T06:18:21.458Z,1018.22
2019-03-31T06:20:14.355Z,1018.29
2019-03-31T06:21:14.364Z,1018.27
2019-03-31T06:23:07.274Z,1018.28
2019-03-31T06:24:07.277Z,1018.30
2019-03-31T06:26:01.383Z,1018.32
2019-03-31T06:27:00.186Z,1018.34
2019-03-31T06:28:53.083Z,1018.30
2019-03-31T06:29:53.097Z,1018.33
2019-03-31T06:31:46.001Z,1018.37
2019-03-31T06:32:46.004Z,1018.40
2019-03-31T06:34:47.405Z,1018.40
2019-03-31T06:35:38.911Z,1018.40
2019-03-31T06:37:31.820Z,1018.42
2019-03-31T06:38:31.822Z,1018.45
2019-03-31T06:40:24.721Z,1018.40
2019-03-31T06:41:24.730Z,1018.43
2019-03-31T06:43:17.637Z,1018.47
2019-03-31T06:44:17.638Z,1018.49
2019-03-31T06:46:10.549Z,1018.54
2019-03-31T06:47:10.551Z,1018.53
2019-03-31T06:49:03.449Z,1018.56
2019-03-31T06:50:03.460Z,1018.53
2019-03-31T06:51:56.366Z,1018.54
2019-03-31T06:52:56.371Z,1018.58
2019-03-31T06:54:49.324Z,1018.66
2019-03-31T06:55:49.283Z,1018.68
2019-03-31T06:57:42.192Z,1018.72
2019-03-31T06:58:42.192Z,1018.68
2019-03-31T07:00:35.093Z,1018.67
2019-03-31T07:01:35.150Z,1018.68
2019-03-31T07:03:28.012Z,1018.63
2019-03-31T07:04:28.009Z,1018.68
2019-03-31T07:06:20.921Z,1018.74
2019-03-31T07:07:23.680Z,1018.75
2019-03-31T07:09:13.823Z,1018.75
2019-03-31T07:10:13.834Z,1018.81
2019-03-31T07:12:06.739Z,1018.81
2019-03-31T07:13:06.744Z,1018.82
2019-03-31T07:14:59.644Z,1018.86
2019-03-31T07:15:59.657Z,1018.85
2019-03-31T07:17:52.564Z,1018.88
2019-03-31T07:18:52.570Z,1018.91
2019-03-31T07:20:45.469Z,1018.95
2019-03-31T07:21:45.479Z,1018.95
2019-03-31T07:23:38.386Z,1019.01
2019-03-31T07:24:38.395Z,1018.95
2019-03-31T07:26:31.332Z,1019.02
2019-03-31T07:27:31.310Z,1019.07
2019-03-31T07:29:24.221Z,1019.08
2019-03-31T07:30:24.222Z,1019.10
2019-03-31T07:32:17.131Z,1019.03
2019-03-31T07:33:17.136Z,1019.00
2019-03-31T07:35:18.427Z,1019.03
2019-03-31T07:36:10.058Z,1018.98
2019-03-31T07:38:02.959Z,1019.01
2019-03-31T07:39:03.124Z,1019.00
2019-03-31T07:40:56.126Z,1019.07
2019-03-31T07:41:56.076Z,1019.12
2019-03-31T07:43:48.787Z,1019.14
2019-03-31T07:44:48.791Z,1019.12
2019-03-31T07:46:41.695Z,1019.13
2019-03-31T07:47:41.706Z,1019.07
2019-03-31T07:49:34.616Z,1019.15
2019-03-31T07:50:34.621Z,1019.11
2019-03-31T07:52:27.530Z,1019.12
2019-03-31T07:53:27.537Z,1019.12
2019-03-31T07:55:20.441Z,1019.08
2019-03-31T07:56:20.452Z,1019.09
2019-03-31T07:58:13.380Z,1019.12
2019-03-31T07:59:13.442Z,1019.08
2019-03-31T08:01:06.277Z,1019.10
2019-03-31T08:02:06.284Z,1019.08
2019-03-31T08:03:59.190Z,1019.19
2019-03-31T08:04:59.196Z,1019.15
2019-03-31T08:06:52.099Z,1019.12
2019-03-31T08:07:52.111Z,1019.10
2019-03-31T08:09:45.019Z,1019.08
2019-03-31T08:10:45.023Z,1019.04
2019-03-31T08:12:37.933Z,1019.02
2019-03-31T08:13:37.941Z,1019.08
2019-03-31T08:15:30.843Z,1019.08
2019-03-31T08:16:30.856Z,1019.09
2019-03-31T08:18:23.766Z,1019.07
2019-03-31T08:19:23.808Z,1019.08
2019-03-31T08:21:16.674Z,1019.17
2019-03-31T08:22:16.693Z,1019.13
2019-03-31T08:24:09.650Z,1019.21
2019-03-31T08:25:09.663Z,1019.20
2019-03-31T08:27:05.441Z,1019.20
2019-03-31T08:28:02.620Z,1019.17
2019-03-31T08:30:00.431Z,1019.22
2019-03-31T08:30:55.533Z,1019.23
2019-03-31T08:32:48.450Z,1019.26
2019-03-31T08:33:48.451Z,1019.25
2019-03-31T08:35:47.476Z,1019.26
2019-03-31T08:36:41.366Z,1019.30
2019-03-31T08:38:34.274Z,1019.30
2019-03-31T08:39:34.301Z,1019.31
2019-03-31T08:41:27.184Z,1019.34
2019-03-31T08:42:27.193Z,1019.35
2019-03-31T08:44:20.106Z,1019.33
2019-03-31T08:45:20.113Z,1019.35
2019-03-31T08:47:13.025Z,1019.42
2019-03-31T08:48:13.022Z,1019.44
2019-03-31T08:50:05.963Z,1019.45
2019-03-31T08:51:05.941Z,1019.41
2019-03-31T08:52:58.847Z,1019.50
2019-03-31T08:53:58.853Z,1019.55
2019-03-31T08:55:51.774Z,1019.54
2019-03-31T08:56:51.778Z,1019.53
2019-03-31T08:58:44.687Z,1019.56
2019-03-31T08:59:44.696Z,1019.55
2019-03-31T09:01:37.595Z,1019.59
2019-03-31T09:02:37.611Z,1019.60
2019-03-31T09:04:30.516Z,1019.66
2019-03-31T09:05:30.523Z,1019.72
2019-03-31T09:07:23.426Z,1019.69
2019-03-31T09:08:23.438Z,1019.77
2019-03-31T09:10:16.422Z,1019.72
2019-03-31T09:11:16.351Z,1019.72
2019-03-31T09:13:09.262Z,1019.76
2019-03-31T09:14:09.266Z,1019.75
2019-03-31T09:16:02.174Z,1019.83
2019-03-31T09:17:02.183Z,1019.81
2019-03-31T09:18:55.094Z,1019.83
2019-03-31T09:19:55.100Z,1019.77
2019-03-31T09:21:48.009Z,1019.74
2019-03-31T09:22:48.017Z,1019.74
2019-03-31T09:24:40.929Z,1019.70
2019-03-31T09:25:40.933Z,1019.71
2019-03-31T09:27:33.875Z,1019.72
2019-03-31T09:28:33.878Z,1019.75
2019-03-31T09:30:26.792Z,1019.76
2019-03-31T09:31:26.795Z,1019.77
2019-03-31T09:33:19.706Z,1019.85
2019-03-31T09:34:19.715Z,1019.79
2019-03-31T09:36:16.350Z,1019.92
2019-03-31T09:37:12.631Z,1019.92
2019-03-31T09:39:05.541Z,1019.89
2019-03-31T09:40:05.547Z,1019.89
2019-03-31T09:41:58.459Z,1019.91
2019-03-31T09:42:58.464Z,1019.96
2019-03-31T09:44:51.372Z,1019.96
2019-03-31T09:45:51.378Z,1019.92
2019-03-31T09:47:44.283Z,1019.94
2019-03-31T09:48:44.296Z,1019.90
2019-03-31T09:50:37.205Z,1019.97
2019-03-31T09:51:37.214Z,1019.94
2019-03-31T09:53:30.190Z,1019.95
2019-03-31T09:54:30.146Z,1019.96
2019-03-31T09:56:23.050Z,1019.99
2019-03-31T09:57:23.062Z,1019.97
2019-03-31T09:59:15.972Z,1019.99
2019-03-31T10:00:15.981Z,1020.02
2019-03-31T10:02:08.884Z,1020.06
2019-03-31T10:03:08.938Z,1020.00
2019-03-31T10:05:01.809Z,1019.99
2019-03-31T10:06:10.796Z,1019.98
2019-03-31T10:07:54.720Z,1019.99
2019-03-31T10:08:54.734Z,1020.03
2019-03-31T10:10:47.647Z,1020.00
2019-03-31T10:11:47.651Z,1020.01
2019-03-31T10:13:40.563Z,1020.01
2019-03-31T10:14:40.570Z,1020.14
2019-03-31T10:16:33.472Z,1020.08
2019-03-31T10:17:33.481Z,1020.07
2019-03-31T10:19:26.401Z,1020.02
2019-03-31T10:20:26.396Z,1020.03
2019-03-31T10:22:19.310Z,1020.09
2019-03-31T10:23:19.319Z,1020.10
2019-03-31T10:25:13.478Z,1020.07
2019-03-31T10:26:12.244Z,1020.10
2019-03-31T10:28:05.142Z,1020.07
2019-03-31T10:29:05.156Z,1020.08
2019-03-31T10:30:58.063Z,1020.10
2019-03-31T10:31:58.204Z,1020.10
2019-03-31T10:33:51.009Z,1020.14
2019-03-31T10:34:51.004Z,1020.17
2019-03-31T10:36:45.036Z,1020.16
2019-03-31T10:37:43.923Z,1020.14
2019-03-31T10:39:36.833Z,1020.12
2019-03-31T10:40:36.841Z,1020.11
2019-03-31T10:42:29.743Z,1020.18
2019-03-31T10:43:29.757Z,1020.18
2019-03-31T10:45:22.666Z,1020.16
2019-03-31T10:46:22.673Z,1020.20
2019-03-31T10:48:20.897Z,1020.21
2019-03-31T10:49:15.587Z,1020.14
2019-03-31T10:51:08.499Z,1020.12
2019-03-31T10:52:08.501Z,1020.13
2019-03-31T10:54:04.420Z,1020.16
2019-03-31T10:55:01.420Z,1020.19
2019-03-31T10:56:54.322Z,1020.19
2019-03-31T10:57:54.335Z,1020.22
2019-03-31T10:59:47.247Z,1020.23
2019-03-31T11:00:47.253Z,1020.17
2019-03-31T11:02:40.157Z,1020.28
2019-03-31T11:03:40.171Z,1020.30
2019-03-31T11:05:33.081Z,1020.31
2019-03-31T11:06:33.089Z,1020.24
2019-03-31T11:08:25.990Z,1020.33
2019-03-31T11:09:26.006Z,1020.34
2019-03-31T11:11:18.918Z,1020.34
2019-03-31T11:12:18.923Z,1020.30
2019-03-31T11:14:11.917Z,1020.26
2019-03-31T11:15:11.843Z,1020.28
2019-03-31T11:17:04.746Z,1020.27
2019-03-31T11:18:04.762Z,1020.25
2019-03-31T11:20:00.616Z,1020.31
2019-03-31T11:20:57.684Z,1020.31
2019-03-31T11:22:50.584Z,1020.31
2019-03-31T11:23:50.601Z,1020.23
2019-03-31T11:25:43.512Z,1020.30
2019-03-31T11:26:43.518Z,1020.29
2019-03-31T11:28:36.422Z,1020.30
2019-03-31T11:29:36.439Z,1020.30
2019-03-31T11:31:29.352Z,1020.32
2019-03-31T11:32:29.363Z,1020.37
2019-03-31T11:34:22.269Z,1020.36
2019-03-31T11:35:22.280Z,1020.32
2019-03-31T11:37:15.186Z,1020.33
2019-03-31T11:38:15.200Z,1020.27
2019-03-31T11:40:08.149Z,1020.33
2019-03-31T11:41:08.121Z,1020.33
2019-03-31T11:43:01.027Z,1020.38
2019-03-31T11:44:01.048Z,1020.35
2019-03-31T11:45:53.948Z,1020.32
2019-03-31T11:46:53.959Z,1020.35
2019-03-31T11:48:46.863Z,1020.26
2019-03-31T11:49:46.876Z,1020.30
2019-03-31T11:51:39.786Z,1020.35
2019-03-31T11:52:39.793Z,1020.35
2019-03-31T11:54:32.705Z,1020.34
2019-03-31T11:55:32.710Z,1020.34
2019-03-31T11:57:25.619Z,1020.27
2019-03-31T11:58:25.635Z,1020.26
2019-03-31T12:00:18.543Z,1020.28
2019-03-31T12:01:18.554Z,1020.30
2019-03-31T12:03:11.458Z,1020.22
2019-03-31T12:04:11.473Z,1020.22
2019-03-31T12:06:04.382Z,1020.23
2019-03-31T12:07:04.400Z,1020.24
2019-03-31T12:08:57.295Z,1020.27
2019-03-31T12:09:57.312Z,1020.27
2019-03-31T12:11:50.296Z,1020.24
2019-03-31T12:12:50.239Z,1020.21
2019-03-31T12:14:43.152Z,1020.23
2019-03-31T12:15:43.167Z,1020.17
2019-03-31T12:17:36.065Z,1020.13
2019-03-31T12:18:36.085Z,1020.10
2019-03-31T12:20:29.138Z,1020.14
2019-03-31T12:21:29.025Z,1020.12
2019-03-31T12:23:21.934Z,1020.11
2019-03-31T12:24:21.952Z,1020.12
2019-03-31T12:26:14.860Z,1020.10
2019-03-31T12:27:14.870Z,1020.10
2019-03-31T12:29:07.774Z,1020.04
2019-03-31T12:30:07.788Z,1020.05
2019-03-31T12:32:00.876Z,1020.10
2019-03-31T12:33:00.714Z,1020.04
2019-03-31T12:34:53.635Z,1020.05
2019-03-31T12:35:53.631Z,1020.11
2019-03-31T12:37:46.550Z,1020.03
2019-03-31T12:38:46.550Z,1020.03
2019-03-31T12:40:39.470Z,1019.98
2019-03-31T12:41:39.542Z,1019.95
2019-03-31T12:43:33.272Z,1019.99
2019-03-31T12:44:33.309Z,1020.03
2019-03-31T12:46:26.170Z,1020.03
2019-03-31T12:47:26.170Z,1020.03
2019-03-31T12:49:19.082Z,1020.05
2019-03-31T12:50:19.092Z,1020.02
2019-03-31T12:52:12.002Z,1019.97
2019-03-31T12:53:12.012Z,1019.97
2019-03-31T12:55:04.948Z,1020.03
2019-03-31T12:56:04.936Z,1019.98
2019-03-31T12:57:57.841Z,1019.95
2019-03-31T12:58:57.860Z,1019.94
2019-03-31T13:00:50.767Z,1019.99
2019-03-31T13:01:50.778Z,1019.93
2019-03-31T13:03:43.757Z,1019.95
2019-03-31T13:04:43.701Z,1019.93
2019-03-31T13:06:36.684Z,1019.87
2019-03-31T13:07:36.730Z,1019.86
2019-03-31T13:09:29.700Z,1019.89
2019-03-31T13:10:29.648Z,1019.84
2019-03-31T13:12:22.526Z,1019.85
2019-03-31T13:13:22.534Z,1019.87
2019-03-31T13:15:15.454Z,1019.89
2019-03-31T13:16:15.459Z,1019.86
2019-03-31T13:18:08.365Z,1019.82
2019-03-31T13:19:08.382Z,1019.88
2019-03-31T13:21:01.294Z,1019.88
2019-03-31T13:22:01.305Z,1019.91
2019-03-31T13:23:54.217Z,1019.88
2019-03-31T13:24:54.227Z,1019.88
2019-03-31T13:26:47.139Z,1019.84
2019-03-31T13:27:47.147Z,1019.81
2019-03-31T13:29:40.056Z,1019.82
2019-03-31T13:30:40.070Z,1019.80
2019-03-31T13:32:32.981Z,1019.78
2019-03-31T13:33:32.989Z,1019.83
2019-03-31T13:35:25.905Z,1019.76
2019-03-31T13:36:25.912Z,1019.80
2019-03-31T13:38:18.818Z,1019.78
2019-03-31T13:39:18.832Z,1019.76
2019-03-31T13:41:11.745Z,1019.83
2019-03-31T13:42:11.753Z,1019.76
2019-03-31T13:44:04.657Z,1019.70
2019-03-31T13:45:04.672Z,1019.73
2019-03-31T13:46:57.583Z,1019.69
2019-03-31T13:47:58.825Z,1019.70
2019-03-31T13:49:50.503Z,1019.68
2019-03-31T13:50:50.513Z,1019.60
2019-03-31T13:52:43.427Z,1019.62
2019-03-31T13:53:43.434Z,1019.74
2019-03-31T13:55:36.419Z,1019.63
2019-03-31T13:56:37.106Z,1019.62
2019-03-31T13:58:30.443Z,1019.67
2019-03-31T13:59:29.359Z,1019.65
2019-03-31T14:01:22.293Z,1019.73
2019-03-31T14:02:22.254Z,1019.65
2019-03-31T14:04:15.253Z,1019.71
2019-03-31T14:05:15.310Z,1019.68
2019-03-31T14:07:08.186Z,1019.69
2019-03-31T14:08:08.189Z,1019.70
2019-03-31T14:10:01.116Z,1019.66
2019-03-31T14:11:01.114Z,1019.65
2019-03-31T14:12:54.030Z,1019.64
2019-03-31T14:13:56.008Z,1019.65
2019-03-31T14:15:46.950Z,1019.66
2019-03-31T14:16:46.969Z,1019.70
2019-03-31T14:18:39.880Z,1019.61
2019-03-31T14:19:39.884Z,1019.56
2019-03-31T14:21:32.802Z,1019.56
2019-03-31T14:22:32.806Z,1019.65
2019-03-31T14:24:27.094Z,1019.56
2019-03-31T14:25:25.748Z,1019.63
2019-03-31T14:27:18.664Z,1019.51
2019-03-31T14:28:18.670Z,1019.53
2019-03-31T14:30:11.579Z,1019.58
2019-03-31T14:31:11.588Z,1019.59
2019-03-31T14:33:04.503Z,1019.61
2019-03-31T14:34:04.515Z,1019.60
2019-03-31T14:35:57.418Z,1019.63
2019-03-31T14:36:57.429Z,1019.54
2019-03-31T14:38:50.343Z,1019.57
2019-03-31T14:39:50.350Z,1019.59
2019-03-31T14:41:43.262Z,1019.63
2019-03-31T14:42:43.268Z,1019.58
2019-03-31T14:44:36.173Z,1019.57
2019-03-31T14:45:36.186Z,1019.55
2019-03-31T14:47:29.094Z,1019.57
2019-03-31T14:48:29.101Z,1019.52
2019-03-31T14:50:22.007Z,1019.50
2019-03-31T14:51:22.022Z,1019.48
2019-03-31T14:53:14.940Z,1019.59
2019-03-31T14:54:14.939Z,1019.52
2019-03-31T14:56:07.846Z,1019.48
2019-03-31T14:57:07.856Z,1019.50
2019-03-31T14:59:00.767Z,1019.46
2019-03-31T15:00:13.839Z,1019.45
2019-03-31T15:01:53.684Z,1019.55
2019-03-31T15:02:53.694Z,1019.49
2019-03-31T15:04:46.595Z,1019.44
2019-03-31T15:05:46.612Z,1019.47
2019-03-31T15:07:39.554Z,1019.44
2019-03-31T15:08:53.465Z,1019.43
2019-03-31T15:10:32.432Z,1019.51
2019-03-31T15:11:32.445Z,1019.39
2019-03-31T15:13:25.353Z,1019.40
2019-03-31T15:14:25.363Z,1019.38
2019-03-31T15:16:18.266Z,1019.41
2019-03-31T15:17:18.289Z,1019.35
2019-03-31T15:19:11.189Z,1019.39
2019-03-31T15:20:11.195Z,1019.35
2019-03-31T15:22:04.106Z,1019.38
2019-03-31T15:23:04.114Z,1019.35
2019-03-31T15:24:57.019Z,1019.50
2019-03-31T15:25:57.032Z,1019.47
2019-03-31T15:27:50.089Z,1019.38
2019-03-31T15:28:50.168Z,1019.37
2019-03-31T15:30:42.999Z,1019.39
2019-03-31T15:31:43.014Z,1019.42
2019-03-31T15:33:35.998Z,1019.49
2019-03-31T15:34:35.963Z,1019.43
2019-03-31T15:36:28.866Z,1019.46
2019-03-31T15:37:28.883Z,1019.42
2019-03-31T15:39:21.832Z,1019.44
2019-03-31T15:40:21.834Z,1019.41
2019-03-31T15:42:14.742Z,1019.45
2019-03-31T15:43:14.748Z,1019.44
2019-03-31T15:45:07.652Z,1019.43
2019-03-31T15:46:07.666Z,1019.45
2019-03-31T15:48:00.582Z,1019.46
2019-03-31T15:49:00.584Z,1019.47
2019-03-31T15:50:53.535Z,1019.53
2019-03-31T15:51:53.539Z,1019.50
2019-03-31T15:53:46.446Z,1019.47
2019-03-31T15:54:46.453Z,1019.44
2019-03-31T15:56:39.399Z,1019.48
2019-03-31T15:57:39.371Z,1019.47
2019-03-31T15:59:32.274Z,1019.44
2019-03-31T16:00:32.285Z,1019.54
2019-03-31T16:02:25.195Z,1019.51
2019-03-31T16:03:25.200Z,1019.43
2019-03-31T16:05:18.104Z,1019.43
2019-03-31T16:06:18.115Z,1019.45
2019-03-31T16:08:11.033Z,1019.38
2019-03-31T16:09:22.787Z,1019.40
2019-03-31T16:11:04.951Z,1019.40
2019-03-31T16:12:03.954Z,1019.36
2019-03-31T16:13:56.865Z,1019.43
2019-03-31T16:14:56.871Z,1019.42
2019-03-31T16:16:49.774Z,1019.37
2019-03-31T16:17:49.787Z,1019.40
2019-03-31T16:19:42.696Z,1019.34
2019-03-31T16:20:42.705Z,1019.33
2019-03-31T16:22:35.619Z,1019.39
2019-03-31T16:23:35.625Z,1019.44
2019-03-31T16:25:28.726Z,1019.37
2019-03-31T16:26:28.532Z,1019.45
2019-03-31T16:28:21.441Z,1019.39
2019-03-31T16:29:21.448Z,1019.41
2019-03-31T16:31:14.360Z,1019.37
2019-03-31T16:32:14.362Z,1019.42
2019-03-31T16:34:07.272Z,1019.40
2019-03-31T16:35:07.276Z,1019.53
2019-03-31T16:37:00.831Z,1019.40
2019-03-31T16:38:00.200Z,1019.39
2019-03-31T16:39:53.101Z,1019.39
2019-03-31T16:40:53.110Z,1019.40
2019-03-31T16:42:46.020Z,1019.43
2019-03-31T16:43:46.024Z,1019.42
2019-03-31T16:45:38.926Z,1019.47
2019-03-31T16:46:40.022Z,1019.43
2019-03-31T16:48:31.846Z,1019.48
2019-03-31T16:49:31.850Z,1019.47
2019-03-31T16:51:24.756Z,1019.48
2019-03-31T16:52:24.765Z,1019.48
2019-03-31T16:54:17.674Z,1019.52
2019-03-31T16:55:17.679Z,1019.46
2019-03-31T16:57:10.587Z,1019.50
2019-03-31T16:58:10.596Z,1019.51
2019-03-31T17:00:03.501Z,1019.52
2019-03-31T17:01:03.510Z,1019.53
2019-03-31T17:02:56.417Z,1019.49
2019-03-31T17:03:56.422Z,1019.50
2019-03-31T17:05:49.325Z,1019.50
2019-03-31T17:06:49.339Z,1019.55
2019-03-31T17:08:42.247Z,1019.56
2019-03-31T17:09:51.350Z,1019.51
2019-03-31T17:11:35.155Z,1019.56
2019-03-31T17:12:35.165Z,1019.57
2019-03-31T17:14:28.569Z,1019.64
2019-03-31T17:15:28.582Z,1019.60
2019-03-31T17:17:21.486Z,1019.60
2019-03-31T17:18:21.526Z,1019.59
2019-03-31T17:20:14.466Z,1019.61
2019-03-31T17:21:14.461Z,1019.66
2019-03-31T17:23:07.366Z,1019.65
2019-03-31T17:24:07.356Z,1019.62
2019-03-31T17:26:00.302Z,1019.63